createdAt,value
2017-11-23T00:09:27.032Z,84.70
2017-11-23T00:11:56.054Z,84.70
2017-11-23T00:14:25.049Z,84.30
2017-11-23T00:16:53.206Z,85.20
2017-11-23T00:19:21.359Z,84.30
2017-11-23T00:21:49.509Z,84.80
2017-11-23T00:24:17.661Z,85.00
2017-11-23T00:26:45.829Z,86.10
2017-11-23T00:29:13.996Z,85.40
2017-11-23T00:31:42.169Z,85.30
2017-11-23T00:34:10.330Z,85.30
2017-11-23T00:36:38.480Z,85.40
2017-11-23T00:39:07.603Z,85.40
2017-11-23T00:41:35.778Z,83.60
2017-11-23T00:44:03.934Z,84.40
2017-11-23T00:46:32.094Z,85.00
2017-11-23T00:49:00.261Z,85.00
2017-11-23T00:51:29.000Z,84.40
2017-11-23T00:54:03.051Z,84.80
2017-11-23T00:56:31.206Z,84.40
2017-11-23T00:59:00.103Z,84.70
2017-11-23T01:01:28.267Z,84.80
2017-11-23T01:03:57.289Z,84.00
2017-11-23T01:06:25.452Z,83.90
2017-11-23T01:08:53.649Z,85.00
2017-11-23T01:11:21.806Z,83.90
2017-11-23T01:13:51.448Z,83.30
2017-11-23T01:16:20.371Z,85.00
2017-11-23T01:18:48.536Z,85.20
2017-11-23T01:21:16.690Z,84.50
2017-11-23T01:23:44.924Z,84.00
2017-11-23T01:26:13.097Z,84.20
2017-11-23T01:28:41.258Z,84.40
2017-11-23T01:31:09.646Z,84.10
2017-11-23T01:33:37.841Z,84.20
2017-11-23T01:36:05.987Z,85.60
2017-11-23T01:38:34.916Z,85.90
2017-11-23T01:41:03.934Z,85.80
2017-11-23T01:43:37.998Z,85.60
2017-11-23T01:46:06.197Z,85.20
2017-11-23T01:48:34.372Z,84.20
2017-11-23T01:51:02.522Z,84.80
2017-11-23T01:53:30.810Z,84.60
2017-11-23T01:55:58.971Z,83.90
2017-11-23T01:58:27.126Z,85.10
2017-11-23T02:00:56.080Z,84.10
2017-11-23T02:03:24.342Z,84.50
2017-11-23T02:05:52.540Z,85.40
2017-11-23T02:08:20.675Z,86.20
2017-11-23T02:10:49.353Z,86.10
2017-11-23T02:13:21.286Z,85.10
2017-11-23T02:15:49.439Z,85.10
2017-11-23T02:18:19.709Z,83.80
2017-11-23T02:20:47.886Z,84.40
2017-11-23T02:23:20.175Z,85.70
2017-11-23T02:25:48.334Z,86.00
2017-11-23T02:28:17.530Z,86.30
2017-11-23T02:30:45.683Z,86.60
2017-11-23T02:33:14.700Z,89.80
2017-11-23T02:35:42.867Z,89.70
2017-11-23T02:38:11.259Z,90.30
2017-11-23T02:40:39.430Z,90.10
2017-11-23T02:43:08.688Z,88.70
2017-11-23T02:45:36.853Z,87.50
2017-11-23T02:48:06.026Z,87.10
2017-11-23T02:50:34.183Z,90.30
2017-11-23T02:53:02.414Z,90.70
2017-11-23T02:55:30.584Z,90.80
2017-11-23T02:57:59.681Z,90.50
2017-11-23T03:00:27.830Z,90.40
2017-11-23T03:02:56.052Z,90.60
2017-11-23T03:05:24.200Z,91.10
2017-11-23T03:07:52.350Z,91.30
2017-11-23T03:10:20.517Z,91.10
2017-11-23T03:12:48.768Z,91.10
2017-11-23T03:15:16.916Z,90.90
2017-11-23T03:17:45.933Z,90.50
2017-11-23T03:20:14.087Z,90.50
2017-11-23T03:22:43.071Z,87.90
2017-11-23T03:25:11.249Z,87.90
2017-11-23T03:27:41.910Z,85.80
2017-11-23T03:30:10.057Z,83.60
2017-11-23T03:32:39.083Z,82.00
2017-11-23T03:35:07.245Z,81.90
2017-11-23T03:37:35.454Z,80.80
2017-11-23T03:40:03.606Z,81.30
2017-11-23T03:42:31.781Z,81.90
2017-11-23T03:45:00.728Z,82.00
2017-11-23T03:47:28.946Z,80.10
2017-11-23T03:49:57.109Z,79.80
2017-11-23T03:52:26.536Z,80.40
2017-11-23T03:54:54.804Z,80.80
2017-11-23T03:57:23.032Z,81.00
2017-11-23T03:59:51.195Z,81.80
2017-11-23T04:02:20.269Z,82.70
2017-11-23T04:04:49.298Z,81.10
2017-11-23T04:07:17.466Z,81.30
2017-11-23T04:09:45.623Z,81.70
2017-11-23T04:12:14.903Z,82.00
2017-11-23T04:14:43.055Z,83.10
2017-11-23T04:17:11.700Z,81.20
2017-11-23T04:19:39.877Z,81.70
2017-11-23T04:22:09.103Z,83.50
2017-11-23T04:24:37.248Z,83.90
2017-11-23T04:27:05.449Z,85.50
2017-11-23T04:29:33.600Z,85.00
2017-11-23T04:32:01.793Z,86.30
2017-11-23T04:34:30.048Z,86.80
2017-11-23T04:36:58.203Z,86.70
2017-11-23T04:39:26.365Z,87.00
2017-11-23T04:41:54.533Z,83.00
2017-11-23T04:44:22.675Z,83.20
2017-11-23T04:46:50.819Z,84.80
2017-11-23T04:49:18.960Z,82.80
2017-11-23T04:51:47.144Z,85.00
2017-11-23T04:54:15.273Z,85.30
2017-11-23T04:56:44.069Z,86.60
2017-11-23T04:59:12.206Z,86.30
2017-11-23T05:01:40.356Z,84.10
2017-11-23T05:04:08.511Z,82.70
2017-11-23T05:06:36.657Z,83.60
2017-11-23T05:09:04.835Z,83.20
2017-11-23T05:11:33.006Z,84.10
2017-11-23T05:14:01.194Z,83.40
2017-11-23T05:16:31.122Z,77.70
2017-11-23T05:18:59.323Z,77.90
2017-11-23T05:21:28.363Z,79.70
2017-11-23T05:23:56.642Z,80.30
2017-11-23T05:26:24.790Z,81.20
2017-11-23T05:28:52.991Z,79.60
2017-11-23T05:31:21.152Z,79.30
2017-11-23T05:33:49.327Z,78.30
2017-11-23T05:36:17.471Z,77.10
2017-11-23T05:38:45.629Z,76.40
2017-11-23T05:41:13.810Z,77.60
2017-11-23T05:43:42.019Z,76.80
2017-11-23T05:46:10.171Z,78.30
2017-11-23T05:48:39.457Z,79.80
2017-11-23T05:51:08.464Z,79.70
2017-11-23T05:53:36.621Z,80.40
2017-11-23T05:56:05.598Z,78.50
2017-11-23T05:58:33.815Z,80.70
2017-11-23T06:01:02.755Z,82.90
2017-11-23T06:03:30.991Z,82.90
2017-11-23T06:05:59.963Z,84.20
2017-11-23T06:08:28.130Z,82.30
2017-11-23T06:10:58.042Z,80.80
2017-11-23T06:13:26.262Z,83.20
2017-11-23T06:15:54.410Z,84.80
2017-11-23T06:18:23.582Z,87.00
2017-11-23T06:20:52.527Z,86.20
2017-11-23T06:23:24.126Z,86.20
2017-11-23T06:25:53.060Z,86.20
2017-11-23T06:28:21.220Z,86.20
2017-11-23T06:30:50.268Z,85.40
2017-11-23T06:33:20.483Z,85.90
2017-11-23T06:35:49.320Z,85.60
2017-11-23T06:38:17.492Z,85.10
2017-11-23T06:40:45.668Z,84.60
2017-11-23T06:43:14.854Z,85.70
2017-11-23T06:45:44.775Z,84.30
2017-11-23T06:48:12.956Z,84.30
2017-11-23T06:50:41.143Z,86.20
2017-11-23T06:53:10.083Z,84.70
2017-11-23T06:55:38.286Z,84.70
2017-11-23T06:58:06.445Z,85.70
2017-11-23T07:00:35.407Z,86.70
2017-11-23T07:03:04.709Z,86.70
2017-11-23T07:05:32.883Z,86.10
2017-11-23T07:08:01.044Z,86.70
2017-11-23T07:10:30.134Z,86.10
2017-11-23T07:13:01.890Z,86.60
2017-11-23T07:15:30.050Z,87.00
2017-11-23T07:18:00.155Z,86.50
2017-11-23T07:20:28.314Z,86.60
2017-11-23T07:22:56.499Z,87.10
2017-11-23T07:25:25.520Z,86.50
2017-11-23T07:27:53.693Z,86.50
2017-11-23T07:30:23.166Z,86.80
2017-11-23T07:32:51.455Z,86.60
2017-11-23T07:35:20.393Z,85.40
2017-11-23T07:37:48.565Z,85.40
2017-11-23T07:40:16.746Z,84.70
2017-11-23T07:42:46.424Z,84.70
2017-11-23T07:45:15.440Z,83.30
2017-11-23T07:47:43.619Z,82.40
2017-11-23T07:50:12.312Z,82.80
2017-11-23T07:52:46.560Z,83.30
2017-11-23T07:55:20.884Z,80.00
2017-11-23T07:57:49.053Z,75.30
2017-11-23T08:00:17.908Z,73.90
2017-11-23T08:02:49.332Z,72.20
2017-11-23T08:05:19.258Z,69.90
2017-11-23T08:07:47.436Z,67.90
2017-11-23T08:10:15.608Z,65.70
2017-11-23T08:12:47.989Z,64.70
2017-11-23T08:15:17.073Z,63.10
2017-11-23T08:17:45.247Z,61.00
2017-11-23T08:20:13.420Z,60.10
2017-11-23T08:22:41.700Z,57.30
2017-11-23T08:25:10.103Z,55.30
2017-11-23T08:27:38.249Z,55.40
2017-11-23T08:30:06.459Z,54.20
2017-11-23T08:32:35.673Z,53.20
2017-11-23T08:35:04.046Z,50.80
2017-11-23T08:37:33.093Z,49.30
2017-11-23T08:40:01.258Z,51.10
2017-11-23T08:42:29.546Z,48.60
2017-11-23T08:44:57.729Z,49.50
2017-11-23T08:47:26.667Z,47.70
2017-11-23T08:49:54.815Z,47.70
2017-11-23T08:52:23.070Z,45.90
2017-11-23T08:54:55.383Z,48.60
2017-11-23T08:57:23.576Z,45.70
2017-11-23T08:59:52.748Z,47.90
2017-11-23T09:02:22.216Z,47.70
2017-11-23T09:04:51.137Z,46.50
2017-11-23T09:07:19.299Z,45.80
2017-11-23T09:09:48.093Z,45.50
2017-11-23T09:12:17.146Z,44.80
2017-11-23T09:14:45.347Z,44.20
2017-11-23T09:17:14.800Z,44.20
2017-11-23T09:19:43.253Z,44.30
2017-11-23T09:22:11.455Z,43.80
2017-11-23T09:24:39.639Z,44.50
2017-11-23T09:27:07.813Z,43.30
2017-11-23T09:29:36.756Z,42.70
2017-11-23T09:32:10.446Z,42.60
2017-11-23T09:34:38.669Z,41.80
2017-11-23T09:37:07.046Z,41.90
2017-11-23T09:39:35.292Z,41.30
2017-11-23T09:42:12.438Z,41.10
2017-11-23T09:44:40.591Z,43.40
2017-11-23T09:47:08.904Z,42.20
2017-11-23T09:49:37.078Z,41.50
2017-11-23T09:52:05.243Z,42.50
2017-11-23T09:54:34.199Z,40.90
2017-11-23T09:57:03.092Z,42.20
2017-11-23T09:59:31.476Z,41.30
2017-11-23T10:01:59.890Z,40.30
2017-11-23T10:04:28.053Z,41.70
2017-11-23T10:06:57.109Z,41.50
2017-11-23T10:09:25.290Z,40.60
2017-11-23T10:11:53.585Z,40.90
2017-11-23T10:14:28.230Z,39.30
2017-11-23T10:16:57.258Z,39.30
2017-11-23T10:19:26.175Z,40.20
2017-11-23T10:21:54.338Z,41.00
2017-11-23T10:24:22.805Z,40.10
2017-11-23T10:26:52.082Z,41.40
2017-11-23T10:29:21.164Z,39.80
2017-11-23T10:31:49.318Z,39.10
2017-11-23T10:34:17.524Z,39.30
2017-11-23T10:36:47.510Z,39.60
2017-11-23T10:39:16.434Z,37.00
2017-11-23T10:41:45.395Z,37.00
2017-11-23T10:44:14.407Z,37.00
2017-11-23T10:46:42.661Z,37.00
2017-11-23T10:49:10.819Z,36.90
2017-11-23T10:51:38.990Z,36.40
2017-11-23T10:54:07.166Z,36.00
2017-11-23T10:56:35.330Z,36.70
2017-11-23T10:59:03.503Z,36.00
2017-11-23T11:01:31.682Z,35.60
2017-11-23T11:04:00.548Z,37.00
2017-11-23T11:06:28.714Z,35.20
2017-11-23T11:08:56.875Z,36.80
2017-11-23T11:11:25.056Z,36.70
2017-11-23T11:13:54.369Z,35.90
2017-11-23T11:16:23.193Z,35.40
2017-11-23T11:18:52.168Z,37.20
2017-11-23T11:21:21.298Z,36.80
2017-11-23T11:23:50.691Z,35.60
2017-11-23T11:26:18.841Z,35.60
2017-11-23T11:28:47.012Z,37.40
2017-11-23T11:31:15.198Z,36.30
2017-11-23T11:33:43.437Z,36.70
2017-11-23T11:36:11.600Z,35.50
2017-11-23T11:38:39.841Z,36.30
2017-11-23T11:41:09.456Z,35.20
2017-11-23T11:43:38.763Z,35.30
2017-11-23T11:46:07.809Z,35.70
2017-11-23T11:48:36.365Z,35.30
2017-11-23T11:51:04.874Z,34.50
2017-11-23T11:53:37.211Z,35.40
2017-11-23T11:56:05.858Z,33.40
2017-11-23T11:58:34.106Z,33.60
2017-11-23T12:01:02.571Z,34.10
2017-11-23T12:03:31.722Z,32.40
2017-11-23T12:06:00.699Z,33.30
2017-11-23T12:08:30.083Z,32.00
2017-11-23T12:10:58.251Z,30.20
2017-11-23T12:13:28.540Z,31.10
2017-11-23T12:16:09.407Z,29.80
2017-11-23T12:18:49.762Z,29.40
2017-11-23T12:21:25.726Z,30.30
2017-11-23T12:24:05.862Z,30.00
2017-11-23T12:26:34.035Z,29.00
2017-11-23T12:29:14.933Z,29.10
2017-11-23T12:31:43.115Z,29.10
2017-11-23T12:34:11.272Z,30.00
2017-11-23T12:36:39.507Z,29.00
2017-11-23T12:39:08.734Z,28.60
2017-11-23T12:41:36.905Z,28.20
2017-11-23T12:44:05.080Z,28.90
2017-11-23T12:46:34.010Z,29.20
2017-11-23T12:49:02.249Z,29.10
2017-11-23T12:51:31.257Z,30.00
2017-11-23T12:53:59.448Z,30.20
2017-11-23T12:56:29.345Z,30.60
2017-11-23T13:01:34.710Z,30.40
2017-11-23T13:04:02.964Z,30.40
2017-11-23T13:06:32.496Z,31.70
2017-11-23T13:09:01.768Z,31.60
2017-11-23T13:11:33.830Z,30.70
2017-11-23T13:14:09.235Z,30.70
2017-11-23T13:16:42.470Z,30.90
2017-11-23T13:19:11.273Z,31.60
2017-11-23T13:21:40.412Z,31.20
2017-11-23T13:24:09.384Z,31.40
2017-11-23T13:26:37.543Z,30.20
2017-11-23T13:29:06.610Z,31.40
2017-11-23T13:31:35.551Z,30.40
2017-11-23T13:34:04.466Z,30.20
2017-11-23T13:36:32.619Z,29.90
2017-11-23T13:39:00.769Z,29.20
2017-11-23T13:41:28.950Z,29.70
2017-11-23T13:43:57.118Z,30.30
2017-11-23T13:46:25.333Z,30.30
2017-11-23T13:48:53.591Z,30.30
2017-11-23T13:51:21.757Z,29.30
2017-11-23T13:53:58.017Z,31.10
2017-11-23T13:56:26.980Z,29.40
2017-11-23T13:58:57.142Z,29.60
2017-11-23T14:01:25.295Z,29.00
2017-11-23T14:03:54.455Z,28.20
2017-11-23T14:06:22.633Z,27.90
2017-11-23T14:08:51.738Z,28.40
2017-11-23T14:11:20.703Z,28.10
2017-11-23T14:13:52.727Z,28.00
2017-11-23T14:16:20.907Z,28.80
2017-11-23T14:18:49.084Z,27.70
2017-11-23T14:21:17.316Z,28.60
2017-11-23T14:23:45.603Z,28.40
2017-11-23T14:26:13.999Z,29.30
2017-11-23T14:28:42.443Z,28.20
2017-11-23T14:31:10.790Z,29.20
2017-11-23T14:33:42.258Z,28.70
2017-11-23T14:36:11.323Z,28.30
2017-11-23T14:38:39.488Z,28.90
2017-11-23T14:41:07.883Z,29.00
2017-11-23T14:43:36.129Z,29.30
2017-11-23T14:46:04.299Z,28.50
2017-11-23T14:48:32.454Z,28.60
2017-11-23T14:51:01.369Z,28.00
2017-11-23T14:53:31.489Z,28.10
2017-11-23T14:55:59.653Z,28.60
2017-11-23T14:58:28.559Z,28.90
2017-11-23T15:00:56.719Z,28.80
2017-11-23T15:03:29.627Z,28.40
2017-11-23T15:06:01.522Z,28.40
2017-11-23T15:08:29.674Z,28.30
2017-11-23T15:11:00.883Z,29.40
2017-11-23T15:13:33.677Z,29.60
2017-11-23T15:16:01.856Z,29.60
2017-11-23T15:18:33.290Z,30.30
2017-11-23T15:21:01.454Z,30.70
2017-11-23T15:23:29.649Z,31.60
2017-11-23T15:25:57.801Z,31.50
2017-11-23T15:28:26.727Z,32.80
2017-11-23T15:30:54.894Z,32.70
2017-11-23T15:33:26.459Z,33.80
2017-11-23T15:35:54.699Z,33.40
2017-11-23T15:38:22.855Z,33.50
2017-11-23T15:40:51.006Z,34.30
2017-11-23T15:43:22.423Z,33.80
2017-11-23T15:45:50.619Z,34.00
2017-11-23T15:48:19.473Z,35.20
2017-11-23T15:50:47.643Z,36.10
2017-11-23T15:53:15.907Z,37.00
2017-11-23T15:55:44.090Z,37.20
2017-11-23T15:58:13.072Z,36.80
2017-11-23T16:00:41.236Z,36.70
2017-11-23T16:03:09.433Z,38.10
2017-11-23T16:05:37.591Z,37.90
2017-11-23T16:08:06.533Z,39.30
2017-11-23T16:10:34.732Z,39.30
2017-11-23T16:13:02.959Z,39.90
2017-11-23T16:15:31.164Z,41.40
2017-11-23T16:17:59.375Z,42.40
2017-11-23T16:20:27.554Z,43.10
2017-11-23T16:22:55.918Z,43.80
2017-11-23T16:25:24.058Z,45.40
2017-11-23T16:27:52.243Z,47.00
2017-11-23T16:30:20.404Z,48.30
2017-11-23T16:32:55.653Z,49.50
2017-11-23T16:35:23.810Z,50.40
2017-11-23T16:37:57.041Z,50.50
2017-11-23T16:43:36.545Z,53.30
2017-11-23T16:46:24.636Z,53.40
2017-11-23T16:49:04.613Z,55.40
2017-11-23T16:51:49.647Z,56.00
2017-11-23T16:54:23.419Z,55.10
2017-11-23T16:56:57.148Z,57.10
2017-11-23T16:59:30.928Z,57.70
2017-11-23T17:02:02.079Z,58.60
2017-11-23T17:04:35.917Z,60.40
2017-11-23T17:07:09.655Z,62.00
2017-11-23T17:09:43.409Z,60.60
2017-11-23T17:12:17.152Z,60.40
2017-11-23T17:14:51.004Z,61.70
2017-11-23T17:17:35.512Z,62.70
2017-11-23T17:20:03.733Z,62.40
2017-11-23T17:22:31.912Z,61.70
2017-11-23T17:25:00.069Z,62.00
2017-11-23T17:27:29.034Z,63.70
2017-11-23T17:29:57.205Z,62.90
2017-11-23T17:32:29.268Z,64.10
2017-11-23T17:34:57.423Z,65.40
2017-11-23T17:37:25.841Z,65.50
2017-11-23T17:39:54.009Z,65.50
2017-11-23T17:42:26.770Z,65.00
2017-11-23T17:44:58.883Z,64.90
2017-11-23T17:47:28.373Z,64.20
2017-11-23T17:49:56.703Z,64.40
2017-11-23T17:52:25.008Z,65.10
2017-11-23T17:54:53.177Z,65.70
2017-11-23T17:57:21.365Z,66.60
2017-11-23T17:59:49.523Z,66.00
2017-11-23T18:02:18.708Z,64.50
2017-11-23T18:04:47.195Z,65.30
2017-11-23T18:07:15.363Z,65.60
2017-11-23T18:09:43.518Z,65.80
2017-11-23T18:12:11.773Z,67.00
2017-11-23T18:14:39.944Z,68.40
2017-11-23T18:17:08.090Z,68.10
2017-11-23T18:19:36.270Z,67.20
2017-11-23T18:22:05.312Z,67.80
2017-11-23T18:24:33.500Z,67.10
2017-11-23T18:27:01.676Z,67.40
2017-11-23T18:29:29.853Z,67.80
2017-11-23T18:31:58.815Z,68.30
2017-11-23T18:34:26.974Z,68.20
2017-11-23T18:36:55.146Z,67.40
2017-11-23T18:39:23.317Z,67.90
2017-11-23T18:41:52.315Z,70.40
2017-11-23T18:44:20.484Z,70.30
2017-11-23T18:46:49.417Z,71.10
2017-11-23T18:49:17.604Z,71.10
2017-11-23T18:51:45.787Z,72.30
2017-11-23T18:54:15.621Z,72.80
2017-11-23T18:56:44.636Z,73.30
2017-11-23T18:59:12.805Z,70.80
2017-11-23T19:01:41.716Z,70.70
2017-11-23T19:04:09.971Z,70.80
2017-11-23T19:06:38.111Z,72.80
2017-11-23T19:09:06.294Z,73.80
2017-11-23T19:11:34.582Z,74.40
2017-11-23T19:14:03.553Z,75.00
2017-11-23T19:16:31.709Z,75.00
2017-11-23T19:19:01.008Z,74.00
2017-11-23T19:21:29.885Z,74.60
2017-11-23T19:23:58.026Z,74.50
2017-11-23T19:26:26.191Z,75.00
2017-11-23T19:28:54.343Z,75.40
2017-11-23T19:31:22.500Z,76.00
2017-11-23T19:33:50.664Z,77.60
2017-11-23T19:36:18.812Z,76.60
2017-11-23T19:38:47.733Z,76.20
2017-11-23T19:41:15.940Z,76.20
2017-11-23T19:43:44.531Z,75.80
2017-11-23T19:46:12.700Z,76.60
2017-11-23T19:48:41.841Z,76.60
2017-11-23T19:51:10.827Z,77.50
2017-11-23T19:53:39.090Z,77.50
2017-11-23T19:56:07.250Z,78.40
2017-11-23T19:58:35.394Z,75.60
2017-11-23T20:01:03.539Z,75.80
2017-11-23T20:03:31.787Z,76.70
2017-11-23T20:06:01.514Z,77.30
2017-11-23T20:08:29.665Z,77.30
2017-11-23T20:10:58.843Z,78.70
2017-11-23T20:13:27.149Z,78.70
2017-11-23T20:15:55.293Z,77.00
2017-11-23T20:18:23.452Z,74.40
2017-11-23T20:20:51.637Z,76.40
2017-11-23T20:23:23.753Z,77.10
2017-11-23T20:25:52.011Z,79.80
2017-11-23T20:28:20.168Z,77.60
2017-11-23T20:30:49.844Z,81.20
2017-11-23T20:33:18.047Z,80.60
2017-11-23T20:35:48.046Z,81.70
2017-11-23T20:38:16.216Z,81.70
2017-11-23T20:40:44.435Z,80.30
2017-11-23T20:43:12.601Z,80.40
2017-11-23T20:45:40.748Z,80.50
2017-11-23T20:48:08.913Z,80.40
2017-11-23T20:50:37.072Z,80.40
2017-11-23T20:53:05.326Z,78.70
2017-11-23T20:55:34.197Z,77.60
2017-11-23T20:58:02.349Z,79.10
2017-11-23T21:00:31.367Z,80.40
2017-11-23T21:02:59.647Z,80.40
2017-11-23T21:05:28.914Z,80.40
2017-11-23T21:07:57.086Z,78.00
2017-11-23T21:10:25.800Z,77.40
2017-11-23T21:12:54.793Z,77.10
2017-11-23T21:15:24.019Z,75.20
2017-11-23T21:17:52.168Z,75.20
2017-11-23T21:20:20.319Z,75.20
2017-11-23T21:22:50.384Z,78.60
2017-11-23T21:25:18.529Z,78.60
2017-11-23T21:27:46.694Z,78.60
2017-11-23T21:30:14.852Z,79.30
2017-11-23T21:32:43.058Z,78.40
2017-11-23T21:35:12.497Z,78.70
2017-11-23T21:37:40.735Z,77.20
2017-11-23T21:40:08.889Z,76.70
2017-11-23T21:42:37.193Z,78.70
2017-11-23T21:45:05.339Z,77.30
2017-11-23T21:47:34.245Z,78.60
2017-11-23T21:50:02.393Z,78.60
2017-11-23T21:52:35.062Z,80.00
2017-11-23T21:55:03.254Z,79.60
2017-11-23T21:57:31.424Z,81.50
2017-11-23T21:59:59.643Z,82.40
2017-11-23T22:02:29.738Z,79.50
2017-11-23T22:04:57.892Z,80.00
2017-11-23T22:07:26.888Z,80.00
2017-11-23T22:09:55.035Z,80.00
2017-11-23T22:12:24.071Z,81.50
2017-11-23T22:14:53.060Z,81.40
2017-11-23T22:17:22.009Z,81.90
2017-11-23T22:19:50.194Z,80.60
2017-11-23T22:22:18.503Z,81.90
2017-11-23T22:24:48.387Z,80.50
2017-11-23T22:27:16.537Z,80.70
2017-11-23T22:29:44.690Z,79.30
2017-11-23T22:32:14.377Z,79.30
2017-11-23T22:34:42.558Z,78.00
2017-11-23T22:37:11.482Z,76.10
2017-11-23T22:39:39.749Z,76.10
2017-11-23T22:42:08.719Z,72.70
2017-11-23T22:44:36.886Z,72.70
2017-11-23T22:47:06.518Z,73.10
2017-11-23T22:49:34.857Z,73.60
2017-11-23T22:52:03.063Z,72.40
2017-11-23T22:54:32.671Z,72.20
2017-11-23T22:57:00.852Z,71.40
2017-11-23T22:59:29.035Z,70.50
2017-11-23T23:01:57.177Z,71.10
2017-11-23T23:04:25.376Z,70.40
2017-11-23T23:06:53.527Z,69.60
2017-11-23T23:09:21.847Z,69.30
2017-11-23T23:11:50.746Z,68.30
2017-11-23T23:14:19.035Z,68.00
2017-11-23T23:16:47.474Z,67.00
2017-11-23T23:19:16.200Z,67.50
2017-11-23T23:21:44.375Z,67.00
2017-11-23T23:24:12.522Z,66.20
2017-11-23T23:26:40.687Z,65.00
2017-11-23T23:29:08.913Z,65.40
2017-11-23T23:31:37.669Z,64.90
2017-11-23T23:34:05.856Z,63.00
2017-11-23T23:36:34.023Z,62.80
2017-11-23T23:39:02.235Z,62.60
2017-11-23T23:41:31.229Z,64.00
2017-11-23T23:44:00.455Z,64.00
2017-11-23T23:46:28.700Z,63.80
2017-11-23T23:48:57.755Z,63.50
2017-11-23T23:51:25.951Z,63.50
2017-11-23T23:53:54.100Z,62.90
2017-11-23T23:56:22.306Z,62.40
2017-11-23T23:58:51.083Z,63.30
